Time;durP1;ratioP1;P1;durP2;ratioP2;P2;SDS_P1;SDS_P2;PMS_P1;PMS_P2;Temp;Humidity;BMP_temperature;BMP_pressure;BME280_temperature;BME280_humidity;BME280_pressure;Samples;Min_cycle;Max_cycle;Signal;HPM_P1;HPM_P2
2022/02/27 00:01:12;;;;;;;12.93;2.63;;;2.40;99.90;;;;;;5083286;28;20040;-70
2022/02/27 00:03:38;;;;;;;14.27;4.05;;;2.50;99.90;;;;;;5068261;28;20044;-71
2022/02/27 00:06:04;;;;;;;14.80;3.10;;;2.40;99.90;;;;;;5086716;28;20044;-71
2022/02/27 00:08:30;;;;;;;17.83;3.13;;;2.50;99.90;;;;;;5069113;28;20169;-71
2022/02/27 00:10:56;;;;;;;17.27;3.25;;;2.40;99.90;;;;;;5068513;28;20519;-71
2022/02/27 00:13:22;;;;;;;15.10;4.47;;;2.50;99.90;;;;;;5068802;28;20036;-70
2022/02/27 00:15:48;;;;;;;14.60;4.68;;;2.50;99.90;;;;;;5069450;28;20048;-70
2022/02/27 00:18:13;;;;;;;14.43;3.60;;;2.50;99.90;;;;;;5068214;28;20044;-71
2022/02/27 00:20:40;;;;;;;18.02;3.72;;;2.50;99.90;;;;;;5068253;28;20095;-70
2022/02/27 00:23:06;;;;;;;15.38;3.10;;;2.50;99.90;;;;;;5070532;28;20044;-70
2022/02/27 00:25:31;;;;;;;13.02;3.60;;;2.50;99.90;;;;;;5065831;28;20051;-71
2022/02/27 00:27:57;;;;;;;14.30;4.13;;;2.50;99.90;;;;;;5068703;28;20087;-71
2022/02/27 00:30:22;;;;;;;13.38;3.08;;;2.50;99.90;;;;;;5068267;28;20040;-71
2022/02/27 00:32:48;;;;;;;16.35;3.65;;;2.50;99.90;;;;;;5069597;28;20028;-71
2022/02/27 00:35:14;;;;;;;13.65;3.53;;;2.50;99.90;;;;;;5049791;28;20299;-71
2022/02/27 00:37:39;;;;;;;16.75;3.10;;;2.40;99.90;;;;;;5068289;28;20376;-71
2022/02/27 00:40:06;;;;;;;17.38;3.38;;;2.40;99.90;;;;;;5068787;28;20538;-71
2022/02/27 00:42:32;;;;;;;18.33;3.47;;;2.50;99.90;;;;;;5067027;28;20048;-71
2022/02/27 00:44:58;;;;;;;27.45;5.32;;;2.40;99.90;;;;;;5097813;28;20041;-71
2022/02/27 00:47:23;;;;;;;13.75;3.28;;;2.50;99.90;;;;;;5068516;28;20032;-71
2022/02/27 00:49:49;;;;;;;13.93;3.10;;;2.40;99.90;;;;;;5060927;28;20056;-71
2022/02/27 00:52:18;;;;;;;11.10;3.00;;;2.40;99.90;;;;;;5061773;28;20086;-71
2022/02/27 00:54:43;;;;;;;13.20;3.45;;;2.60;99.90;;;;;;5044423;28;20047;-71
2022/02/27 00:57:10;;;;;;;18.80;3.65;;;2.40;99.90;;;;;;5067095;28;20403;-71
2022/02/27 00:59:36;;;;;;;13.40;3.97;;;2.40;99.90;;;;;;5068584;28;20041;-71
2022/02/27 01:02:01;;;;;;;15.02;3.53;;;2.30;99.90;;;;;;5069064;28;20127;-70
2022/02/27 01:04:27;;;;;;;14.43;3.20;;;2.30;99.90;;;;;;5069661;28;20028;-71
2022/02/27 01:06:52;;;;;;;16.13;4.13;;;2.30;99.90;;;;;;5067939;28;20040;-71
2022/02/27 01:09:18;;;;;;;14.70;3.47;;;2.60;99.90;;;;;;5068088;28;20048;-71
2022/02/27 01:11:44;;;;;;;11.60;3.50;;;2.30;99.90;;;;;;5070254;28;20587;-71
2022/02/27 01:14:09;;;;;;;16.45;4.43;;;2.20;99.90;;;;;;5064698;28;20028;-71
2022/02/27 01:16:35;;;;;;;14.10;3.58;;;2.30;99.90;;;;;;5068030;28;20052;-71
2022/02/27 01:19:00;;;;;;;12.02;3.38;;;2.20;99.90;;;;;;5068823;28;20549;-70
2022/02/27 01:21:26;;;;;;;12.50;3.58;;;2.20;99.90;;;;;;5073370;28;20037;-70
2022/02/27 01:23:51;;;;;;;10.60;3.22;;;2.30;99.90;;;;;;5071289;28;20044;-71
2022/02/27 01:26:17;;;;;;;19.30;4.85;;;2.20;99.90;;;;;;5066936;28;20505;-70
2022/02/27 01:28:43;;;;;;;14.73;3.10;;;2.20;99.90;;;;;;5067777;28;20464;-70
2022/02/27 01:31:08;;;;;;;15.10;3.40;;;2.20;99.90;;;;;;5082992;28;20086;-70
2022/02/27 01:33:35;;;;;;;11.02;3.10;;;2.20;99.90;;;;;;5083803;28;20111;-71
2022/02/27 01:36:01;;;;;;;11.75;3.08;;;2.20;99.90;;;;;;5068342;28;20044;-71
2022/02/27 01:38:27;;;;;;;12.27;4.13;;;2.10;99.90;;;;;;5092490;28;20071;-71
2022/02/27 01:40:52;;;;;;;21.40;4.07;;;2.20;99.90;;;;;;5065160;28;20525;-70
2022/02/27 01:43:18;;;;;;;16.23;3.65;;;2.20;99.90;;;;;;5066725;28;20040;-70
2022/02/27 01:45:43;;;;;;;25.48;5.85;;;2.20;99.90;;;;;;5064299;28;20827;-71
2022/02/27 01:48:09;;;;;;;18.50;2.95;;;2.20;99.90;;;;;;5065630;28;20071;-70
2022/02/27 01:50:35;;;;;;;13.68;4.03;;;2.10;99.90;;;;;;5068349;28;20044;-71
2022/02/27 01:53:01;;;;;;;13.65;4.50;;;2.10;99.90;;;;;;5064255;28;20047;-71
2022/02/27 01:55:26;;;;;;;10.30;3.78;;;2.10;99.90;;;;;;5066063;28;20036;-71
2022/02/27 01:57:52;;;;;;;11.05;3.72;;;2.00;99.90;;;;;;5095579;28;20045;-71
2022/02/27 02:00:18;;;;;;;24.55;5.75;;;2.20;99.90;;;;;;5067598;28;20695;-71
2022/02/27 02:02:45;;;;;;;12.48;3.40;;;2.10;99.90;;;;;;5067255;28;20036;-71
2022/02/27 02:05:11;;;;;;;16.20;3.42;;;2.10;99.90;;;;;;5064143;28;21891;-71
2022/02/27 02:07:37;;;;;;;21.75;4.72;;;2.10;99.90;;;;;;5062949;28;20037;-70
2022/02/27 02:10:03;;;;;;;14.23;4.13;;;2.10;99.90;;;;;;5073194;28;20487;-71
2022/02/27 02:12:29;;;;;;;17.55;3.63;;;2.00;99.90;;;;;;5064512;28;20052;-71
2022/02/27 02:14:55;;;;;;;22.15;3.97;;;2.00;99.90;;;;;;5060261;28;20045;-71
2022/02/27 02:17:20;;;;;;;16.65;4.15;;;2.00;99.90;;;;;;5057657;28;20051;-70
2022/02/27 02:19:46;;;;;;;20.45;4.13;;;1.90;99.90;;;;;;5059494;28;20403;-71
2022/02/27 02:22:12;;;;;;;11.70;3.10;;;2.10;99.90;;;;;;5062422;28;20039;-71
2022/02/27 02:24:38;;;;;;;16.80;3.25;;;2.00;99.90;;;;;;5066799;28;20085;-71
2022/02/27 02:27:04;;;;;;;13.45;3.75;;;2.00;99.90;;;;;;5066623;28;20076;-71
2022/02/27 02:29:30;;;;;;;14.88;3.67;;;1.90;99.90;;;;;;5065082;28;20033;-70
2022/02/27 02:31:56;;;;;;;12.70;3.47;;;2.00;99.90;;;;;;5065002;28;20091;-71
2022/02/27 02:34:24;;;;;;;20.50;3.67;;;2.00;99.90;;;;;;5067541;28;20355;-71
2022/02/27 02:36:51;;;;;;;14.82;3.80;;;2.00;99.90;;;;;;5065598;28;20176;-71
2022/02/27 02:39:19;;;;;;;10.93;3.47;;;1.90;99.90;;;;;;5095359;28;20123;-71
2022/02/27 02:41:45;;;;;;;18.08;4.07;;;2.30;99.90;;;;;;5064771;28;20209;-71
2022/02/27 02:44:12;;;;;;;16.10;3.53;;;2.00;99.90;;;;;;5066517;28;20119;-70
2022/02/27 02:46:38;;;;;;;11.70;3.88;;;1.90;99.90;;;;;;5075720;28;20048;-70
2022/02/27 02:49:05;;;;;;;16.02;3.38;;;2.10;99.90;;;;;;5067573;28;20037;-70
2022/02/27 02:51:31;;;;;;;11.98;2.97;;;2.00;99.90;;;;;;5063510;28;20037;-71
2022/02/27 02:53:57;;;;;;;8.18;3.20;;;2.00;99.90;;;;;;5067170;28;20048;-71
2022/02/27 02:56:23;;;;;;;20.58;3.38;;;2.10;99.90;;;;;;5065461;28;20041;-71
2022/02/27 02:58:49;;;;;;;19.30;4.32;;;2.10;99.90;;;;;;5066174;28;20128;-71
2022/02/27 03:01:16;;;;;;;16.02;3.20;;;2.10;99.90;;;;;;5070348;28;20248;-71
2022/02/27 03:03:43;;;;;;;14.23;3.70;;;2.10;99.90;;;;;;5068368;28;20700;-70
2022/02/27 03:06:10;;;;;;;20.75;4.43;;;2.10;99.90;;;;;;5066283;28;20055;-70
2022/02/27 03:08:40;;;;;;;14.90;3.70;;;2.10;99.90;;;;;;5068974;28;20056;-70
2022/02/27 03:11:06;;;;;;;15.60;3.20;;;2.10;99.90;;;;;;5101254;28;20042;-71
2022/02/27 03:13:32;;;;;;;14.65;3.17;;;2.10;99.90;;;;;;5068428;28;20040;-71
2022/02/27 03:15:58;;;;;;;14.68;2.97;;;2.10;99.90;;;;;;5069972;28;20491;-70
2022/02/27 03:18:23;;;;;;;15.38;3.58;;;2.00;99.90;;;;;;5070116;28;20040;-71
2022/02/27 03:20:49;;;;;;;13.43;3.25;;;2.00;99.90;;;;;;5070214;28;20043;-71
2022/02/27 03:23:15;;;;;;;16.45;3.53;;;2.00;99.90;;;;;;5051533;28;20151;-71
2022/02/27 03:25:40;;;;;;;10.75;2.72;;;2.10;99.90;;;;;;5071563;28;20475;-70
2022/02/27 03:28:06;;;;;;;17.65;3.70;;;2.00;99.90;;;;;;5069683;28;20028;-70
2022/02/27 03:30:34;;;;;;;18.30;3.88;;;2.10;99.90;;;;;;5068650;28;20041;-70
2022/02/27 03:32:59;;;;;;;18.25;4.30;;;2.10;99.90;;;;;;5068195;28;20068;-71
2022/02/27 03:35:25;;;;;;;13.05;4.15;;;2.10;99.90;;;;;;5086656;28;20086;-70
2022/02/27 03:37:50;;;;;;;17.60;4.97;;;2.10;99.90;;;;;;5069017;28;20040;-70
2022/02/27 03:40:17;;;;;;;26.55;7.32;;;2.10;99.90;;;;;;5068812;28;20048;-71
2022/02/27 03:42:43;;;;;;;19.35;5.82;;;2.10;99.90;;;;;;5071526;28;20521;-71
2022/02/27 03:45:10;;;;;;;24.50;5.93;;;2.00;99.90;;;;;;5065984;28;20037;-71
2022/02/27 03:47:35;;;;;;;17.80;4.72;;;2.00;99.90;;;;;;5068989;28;20499;-71
2022/02/27 03:50:02;;;;;;;17.50;5.75;;;2.10;99.90;;;;;;5067153;28;20041;-71
2022/02/27 03:52:28;;;;;;;18.67;5.60;;;2.00;99.90;;;;;;5069430;28;20044;-71
2022/02/27 03:54:54;;;;;;;14.32;3.58;;;2.00;99.90;;;;;;5068743;28;20139;-71
2022/02/27 03:57:19;;;;;;;19.33;4.72;;;2.00;99.90;;;;;;5070727;28;20036;-70
2022/02/27 03:59:45;;;;;;;20.98;4.00;;;2.00;99.90;;;;;;5069595;28;20055;-70
2022/02/27 04:02:11;;;;;;;18.27;4.28;;;2.00;99.90;;;;;;5070008;28;20387;-71
2022/02/27 04:04:37;;;;;;;19.15;4.25;;;2.00;99.90;;;;;;5065403;28;20054;-71
2022/02/27 04:07:03;;;;;;;17.55;3.63;;;1.90;99.90;;;;;;5072425;28;20044;-71
2022/02/27 04:09:29;;;;;;;12.07;2.85;;;1.90;99.90;;;;;;5067684;28;20086;-71
2022/02/27 04:11:54;;;;;;;14.52;3.22;;;2.00;99.90;;;;;;5067830;28;20036;-71
2022/02/27 04:14:20;;;;;;;11.77;4.00;;;1.90;99.90;;;;;;5070222;28;20036;-71
2022/02/27 04:16:45;;;;;;;11.93;2.88;;;2.00;99.90;;;;;;5070970;28;20071;-71
2022/02/27 04:19:11;;;;;;;17.48;4.60;;;1.90;99.90;;;;;;5066554;28;20044;-71
2022/02/27 04:21:37;;;;;;;13.98;3.13;;;1.90;99.90;;;;;;5069529;28;20040;-71
2022/02/27 04:24:02;;;;;;;15.13;4.35;;;1.80;99.90;;;;;;5101291;28;20040;-71
2022/02/27 04:26:28;;;;;;;16.02;4.28;;;1.80;99.90;;;;;;5071006;28;20036;-71
2022/02/27 04:28:54;;;;;;;14.70;3.65;;;1.70;99.90;;;;;;5071601;28;20042;-71
2022/02/27 04:31:20;;;;;;;15.70;3.38;;;1.70;99.90;;;;;;5069370;28;20044;-71
2022/02/27 04:33:46;;;;;;;18.17;3.78;;;1.70;99.90;;;;;;5071036;28;20442;-70
2022/02/27 04:36:12;;;;;;;11.48;3.35;;;1.70;99.90;;;;;;5069683;28;20399;-71
2022/02/27 04:38:37;;;;;;;18.52;3.88;;;1.60;99.90;;;;;;5066717;28;20155;-70
2022/02/27 04:41:03;;;;;;;10.48;4.38;;;1.70;99.90;;;;;;5069218;28;20083;-70
2022/02/27 04:43:29;;;;;;;17.42;3.85;;;1.60;99.90;;;;;;5070653;28;20064;-70
2022/02/27 04:45:55;;;;;;;16.95;3.70;;;1.60;99.90;;;;;;5072865;28;20102;-71
2022/02/27 04:48:20;;;;;;;16.38;4.18;;;1.60;99.90;;;;;;5067232;28;20127;-71
2022/02/27 04:50:46;;;;;;;12.88;3.42;;;1.60;99.90;;;;;;5069135;28;20403;-70
2022/02/27 04:53:12;;;;;;;12.65;4.20;;;1.60;99.90;;;;;;5069209;28;20029;-71
2022/02/27 04:55:37;;;;;;;19.17;3.83;;;1.60;99.90;;;;;;5068948;28;20097;-70
2022/02/27 04:58:03;;;;;;;10.63;3.40;;;1.50;99.90;;;;;;5069861;28;20040;-70
2022/02/27 05:00:29;;;;;;;18.15;3.47;;;1.50;99.90;;;;;;5070079;28;20499;-70
2022/02/27 05:02:54;;;;;;;13.32;3.95;;;1.50;99.90;;;;;;5065923;28;20059;-70
2022/02/27 05:05:20;;;;;;;20.35;5.00;;;1.50;99.90;;;;;;5069273;28;20048;-70
2022/02/27 05:07:45;;;;;;;11.60;3.97;;;1.50;99.90;;;;;;5068696;28;20032;-70
2022/02/27 05:10:11;;;;;;;18.30;4.13;;;1.50;99.90;;;;;;5065290;28;20085;-70
2022/02/27 05:12:38;;;;;;;18.33;4.45;;;1.50;99.90;;;;;;5066928;28;20490;-71
2022/02/27 05:15:05;;;;;;;17.17;3.30;;;1.60;99.90;;;;;;5066679;28;20123;-70
2022/02/27 05:17:31;;;;;;;15.75;3.53;;;1.40;99.90;;;;;;5066265;28;20040;-70
2022/02/27 05:19:56;;;;;;;16.92;3.75;;;1.40;99.90;;;;;;5066641;28;20364;-70
2022/02/27 05:22:22;;;;;;;15.68;5.57;;;1.50;99.90;;;;;;5070300;28;20041;-70
2022/02/27 05:24:48;;;;;;;10.40;3.63;;;1.40;99.90;;;;;;5068650;28;20063;-70
2022/02/27 05:27:14;;;;;;;19.25;4.22;;;1.50;99.90;;;;;;5070668;28;20052;-70
2022/02/27 05:29:46;;;;;;;19.58;4.50;;;1.40;99.90;;;;;;5068982;28;20987;-71
2022/02/27 05:32:13;;;;;;;20.75;5.13;;;1.40;99.90;;;;;;5067885;28;20089;-70
2022/02/27 05:34:38;;;;;;;16.42;3.95;;;1.40;99.90;;;;;;5067942;28;20379;-70
2022/02/27 05:37:05;;;;;;;13.20;3.80;;;1.40;99.90;;;;;;5071958;28;20039;-71
2022/02/27 05:39:31;;;;;;;16.77;4.15;;;1.40;99.90;;;;;;5094177;28;20039;-71
2022/02/27 05:41:56;;;;;;;16.60;4.22;;;1.40;99.90;;;;;;5065691;28;20040;-71
2022/02/27 05:44:22;;;;;;;11.40;3.80;;;1.40;99.90;;;;;;5064586;28;20081;-70
2022/02/27 05:46:54;;;;;;;15.20;3.85;;;1.40;99.90;;;;;;5066228;28;20123;-70
2022/02/27 05:49:19;;;;;;;13.13;3.35;;;1.40;99.90;;;;;;5068500;28;20593;-71
2022/02/27 05:51:48;;;;;;;21.50;4.40;;;1.40;99.90;;;;;;5062388;28;20098;-70
2022/02/27 05:54:14;;;;;;;12.15;4.50;;;1.40;99.90;;;;;;5068712;28;20493;-70
2022/02/27 05:56:39;;;;;;;15.05;4.80;;;1.40;99.90;;;;;;5068133;28;20127;-70
2022/02/27 05:59:05;;;;;;;18.98;4.95;;;1.50;99.90;;;;;;5066968;28;20052;-71
2022/02/27 06:01:31;;;;;;;17.50;3.72;;;1.40;99.90;;;;;;5065289;28;20048;-70
2022/02/27 06:03:56;;;;;;;16.00;4.45;;;1.40;99.90;;;;;;5065346;28;20093;-70
2022/02/27 06:06:22;;;;;;;14.52;3.70;;;1.40;99.90;;;;;;5066134;28;20048;-70
2022/02/27 06:08:47;;;;;;;20.23;6.13;;;1.30;99.90;;;;;;5095362;28;20042;-70
2022/02/27 06:11:13;;;;;;;16.98;4.15;;;1.30;99.90;;;;;;5066568;28;20032;-70
2022/02/27 06:13:39;;;;;;;13.77;4.13;;;1.40;99.90;;;;;;5066299;28;20055;-70
2022/02/27 06:16:04;;;;;;;16.13;4.45;;;1.30;99.90;;;;;;5067018;28;20049;-70
2022/02/27 06:18:30;;;;;;;13.35;3.72;;;1.30;99.90;;;;;;5064941;28;20048;-70
2022/02/27 06:20:55;;;;;;;18.50;3.80;;;1.30;99.90;;;;;;5064264;28;20041;-70
2022/02/27 06:23:21;;;;;;;10.32;3.95;;;1.30;99.90;;;;;;5059004;28;20032;-70
2022/02/27 06:25:47;;;;;;;17.98;5.10;;;1.40;99.90;;;;;;5057748;28;20129;-70
2022/02/27 06:28:12;;;;;;;15.23;4.00;;;1.30;99.90;;;;;;5056126;28;20123;-70
2022/02/27 06:30:38;;;;;;;13.15;3.85;;;1.30;99.90;;;;;;5057562;28;20048;-70
2022/02/27 06:33:03;;;;;;;18.35;3.97;;;1.20;99.90;;;;;;5059829;28;20131;-71
2022/02/27 06:35:29;;;;;;;14.38;5.68;;;1.20;99.90;;;;;;5062253;28;20076;-71
2022/02/27 06:37:55;;;;;;;15.30;4.68;;;1.30;99.90;;;;;;5058145;28;20120;-70
2022/02/27 06:40:21;;;;;;;21.58;5.47;;;1.20;99.90;;;;;;5068004;28;20111;-70
2022/02/27 06:42:47;;;;;;;16.30;4.55;;;1.30;99.90;;;;;;5064489;28;20526;-70
2022/02/27 06:45:14;;;;;;;12.00;4.82;;;1.30;99.90;;;;;;5066675;28;20068;-70
2022/02/27 06:47:40;;;;;;;15.02;4.22;;;1.30;99.90;;;;;;5063294;28;20041;-70
2022/02/27 06:50:06;;;;;;;14.35;5.88;;;1.30;99.90;;;;;;5066710;28;20081;-70
2022/02/27 06:52:32;;;;;;;15.00;5.10;;;1.30;99.90;;;;;;5100580;27;20430;-70
2022/02/27 06:54:58;;;;;;;18.10;4.90;;;1.40;99.90;;;;;;5071883;28;20040;-70
2022/02/27 06:57:24;;;;;;;15.52;5.03;;;1.40;99.90;;;;;;5069541;28;20052;-71
2022/02/27 06:59:49;;;;;;;19.67;5.22;;;1.50;99.90;;;;;;5070734;28;20063;-71
2022/02/27 07:02:15;;;;;;;14.93;4.72;;;1.60;99.90;;;;;;5066430;28;20055;-70
2022/02/27 07:04:41;;;;;;;13.02;4.20;;;1.60;99.90;;;;;;5069535;28;20049;-70
2022/02/27 07:07:07;;;;;;;17.98;4.40;;;1.60;99.90;;;;;;5068936;28;20065;-70
2022/02/27 07:09:33;;;;;;;14.18;4.88;;;1.70;99.90;;;;;;5069382;28;20494;-70
2022/02/27 07:11:58;;;;;;;11.32;4.30;;;1.70;99.90;;;;;;5069989;28;20043;-71
2022/02/27 07:14:24;;;;;;;13.90;4.38;;;1.90;99.90;;;;;;5071136;28;20044;-70
2022/02/27 07:16:50;;;;;;;13.05;3.92;;;2.00;99.90;;;;;;5072047;28;20040;-71
2022/02/27 07:19:16;;;;;;;12.63;4.43;;;2.10;99.90;;;;;;5071347;28;20051;-71
2022/02/27 07:21:42;;;;;;;13.30;3.63;;;2.00;99.90;;;;;;5066660;28;20036;-71
2022/02/27 07:24:08;;;;;;;18.33;4.97;;;2.10;99.90;;;;;;5078398;28;20029;-71
2022/02/27 07:26:34;;;;;;;18.52;4.70;;;2.10;99.90;;;;;;5068167;28;20052;-71
2022/02/27 07:28:59;;;;;;;13.25;5.07;;;2.10;99.90;;;;;;5065252;28;20051;-70
2022/02/27 07:31:25;;;;;;;15.88;4.40;;;2.20;99.90;;;;;;5067182;28;20047;-71
2022/02/27 07:33:51;;;;;;;17.88;5.85;;;2.20;99.90;;;;;;5071031;28;20044;-71
2022/02/27 07:36:18;;;;;;;16.85;4.97;;;2.20;99.90;;;;;;5072203;28;20513;-71
2022/02/27 07:38:44;;;;;;;17.65;5.05;;;2.20;99.90;;;;;;5069544;28;20049;-71
2022/02/27 07:41:09;;;;;;;19.90;5.18;;;2.20;99.90;;;;;;5069770;28;20050;-71
2022/02/27 07:43:35;;;;;;;17.15;4.85;;;2.30;99.90;;;;;;5048194;28;20407;-71
2022/02/27 07:46:02;;;;;;;12.13;4.53;;;2.30;99.90;;;;;;5066324;28;20051;-72
2022/02/27 07:48:28;;;;;;;15.65;4.82;;;2.30;99.90;;;;;;5061020;28;20041;-72
2022/02/27 07:50:54;;;;;;;20.10;4.70;;;2.40;99.90;;;;;;5060030;28;20063;-72
2022/02/27 07:53:20;;;;;;;16.13;4.60;;;2.40;99.90;;;;;;5060077;28;20032;-72
2022/02/27 07:55:45;;;;;;;16.00;4.82;;;2.40;99.90;;;;;;5069881;28;20036;-72
2022/02/27 07:58:12;;;;;;;17.55;5.15;;;2.50;99.90;;;;;;5070331;28;20407;-71
2022/02/27 08:00:38;;;;;;;14.65;4.18;;;2.50;99.90;;;;;;5068328;28;20090;-72
2022/02/27 08:03:04;;;;;;;17.52;5.40;;;2.60;99.90;;;;;;5067022;28;20036;-72
2022/02/27 08:05:29;;;;;;;14.02;4.45;;;2.60;99.90;;;;;;5066070;28;20048;-72
2022/02/27 08:07:57;;;;;;;12.50;4.10;;;2.70;99.90;;;;;;5066970;28;20041;-72
2022/02/27 08:10:23;;;;;;;13.70;4.15;;;2.80;99.90;;;;;;5101266;28;20117;-72
2022/02/27 08:12:49;;;;;;;16.38;4.38;;;2.90;99.90;;;;;;5068033;28;20391;-71
2022/02/27 08:15:16;;;;;;;16.13;4.03;;;2.90;99.90;;;;;;5069067;28;20131;-71
2022/02/27 08:17:43;;;;;;;15.48;4.47;;;3.00;99.90;;;;;;5070771;28;20036;-72
2022/02/27 08:20:09;;;;;;;13.90;4.68;;;3.10;99.90;;;;;;5065097;28;20044;-72
2022/02/27 08:22:36;;;;;;;13.13;4.35;;;3.20;99.90;;;;;;5096185;28;20052;-72
2022/02/27 08:25:04;;;;;;;13.73;4.15;;;3.20;99.90;;;;;;5065885;28;20052;-72
2022/02/27 08:27:29;;;;;;;15.05;4.57;;;3.30;99.90;;;;;;5069745;28;20048;-72
2022/02/27 08:29:55;;;;;;;15.95;4.43;;;3.40;99.90;;;;;;5066243;28;20040;-72
2022/02/27 08:32:21;;;;;;;10.80;4.13;;;3.40;99.90;;;;;;5070441;28;20036;-72
2022/02/27 08:34:46;;;;;;;13.63;4.20;;;3.50;99.90;;;;;;5066086;28;20036;-72
2022/02/27 08:37:12;;;;;;;15.45;4.72;;;3.50;99.90;;;;;;5066893;28;20035;-72
2022/02/27 08:39:38;;;;;;;9.95;3.65;;;3.60;99.90;;;;;;5066622;28;20033;-72
2022/02/27 08:42:04;;;;;;;13.13;4.20;;;3.60;99.90;;;;;;5066764;28;20040;-73
2022/02/27 08:44:33;;;;;;;9.63;4.22;;;3.70;99.90;;;;;;5063493;28;20040;-72
2022/02/27 08:47:03;;;;;;;13.30;4.15;;;3.80;99.90;;;;;;5073520;28;20045;-72
2022/02/27 08:49:29;;;;;;;17.80;4.30;;;3.80;99.90;;;;;;5067287;28;20119;-72
2022/02/27 08:51:55;;;;;;;14.05;5.25;;;3.90;99.90;;;;;;5069682;28;20487;-73
2022/02/27 08:54:21;;;;;;;13.98;4.13;;;4.00;99.90;;;;;;5067277;28;20089;-72
2022/02/27 08:56:47;;;;;;;11.75;4.35;;;4.00;99.90;;;;;;5067697;28;20047;-72
2022/02/27 08:59:12;;;;;;;11.75;4.63;;;4.00;99.90;;;;;;5065128;28;20037;-72
2022/02/27 09:01:38;;;;;;;19.38;4.55;;;4.10;99.90;;;;;;5066495;28;20052;-72
2022/02/27 09:04:04;;;;;;;12.63;3.90;;;4.30;99.90;;;;;;5069001;28;20033;-72
2022/02/27 09:06:30;;;;;;;11.93;4.97;;;4.40;99.90;;;;;;5062748;28;20494;-72
2022/02/27 09:08:55;;;;;;;10.93;4.18;;;4.40;99.90;;;;;;5068308;28;20044;-72
2022/02/27 09:11:21;;;;;;;12.57;4.07;;;4.50;99.90;;;;;;5067451;28;20497;-72
2022/02/27 09:13:47;;;;;;;11.93;4.00;;;4.50;99.90;;;;;;5085250;28;20090;-72
2022/02/27 09:16:12;;;;;;;11.90;4.10;;;4.60;99.90;;;;;;5086481;28;20040;-72
2022/02/27 09:18:38;;;;;;;12.30;4.13;;;4.60;99.90;;;;;;5066020;28;20476;-72
2022/02/27 09:21:03;;;;;;;13.30;4.10;;;4.70;99.90;;;;;;5063754;28;20040;-72
2022/02/27 09:23:29;;;;;;;9.88;3.63;;;4.70;99.90;;;;;;5066337;28;20058;-72
2022/02/27 09:25:56;;;;;;;11.85;3.42;;;4.80;99.90;;;;;;5066401;28;20090;-72
2022/02/27 09:28:21;;;;;;;12.77;3.03;;;5.00;99.90;;;;;;5079813;28;20033;-73
2022/02/27 09:30:47;;;;;;;12.50;3.53;;;5.10;99.90;;;;;;5067138;28;20039;-72
2022/02/27 09:33:13;;;;;;;13.02;3.88;;;5.10;99.90;;;;;;5065592;28;20059;-72
2022/02/27 09:35:38;;;;;;;10.18;3.25;;;5.10;99.90;;;;;;5062701;28;20126;-72
2022/02/27 09:38:04;;;;;;;12.35;3.08;;;5.20;99.90;;;;;;5068858;28;20045;-73
2022/02/27 09:40:30;;;;;;;8.25;3.40;;;5.30;99.90;;;;;;5067670;28;20514;-72
2022/02/27 09:42:56;;;;;;;12.45;3.35;;;5.40;99.90;;;;;;5064163;28;20070;-72
2022/02/27 09:45:23;;;;;;;12.57;3.15;;;5.50;99.90;;;;;;5066894;28;20088;-73
2022/02/27 09:47:49;;;;;;;7.15;3.17;;;5.40;99.90;;;;;;5067198;28;20151;-73
2022/02/27 09:50:17;;;;;;;9.60;3.00;;;5.50;99.90;;;;;;5083852;28;20124;-73
2022/02/27 09:52:43;;;;;;;9.15;3.15;;;5.50;99.90;;;;;;5066665;28;20037;-72
2022/02/27 09:55:10;;;;;;;14.07;3.53;;;5.60;99.90;;;;;;5066397;28;20044;-72
2022/02/27 09:57:36;;;;;;;10.88;3.08;;;5.60;99.90;;;;;;5065161;28;20044;-73
2022/02/27 10:00:08;;;;;;;9.35;3.30;;;5.70;99.90;;;;;;5068380;28;20041;-73
2022/02/27 10:02:54;;;;;;;9.40;3.72;;;5.80;99.90;;;;;;5061358;28;20544;-73
2022/02/27 10:05:24;;;;;;;11.30;3.63;;;5.80;99.90;;;;;;5069563;28;20049;-73
2022/02/27 10:07:58;;;;;;;11.43;3.08;;;6.00;99.90;;;;;;5064188;28;20040;-73
2022/02/27 10:10:24;;;;;;;9.73;3.30;;;6.00;99.90;;;;;;5060634;28;20040;-73
2022/02/27 10:12:50;;;;;;;10.60;3.53;;;6.00;99.90;;;;;;5065572;28;20044;-73
2022/02/27 10:15:18;;;;;;;10.02;3.10;;;6.10;99.90;;;;;;5071552;28;20051;-72
2022/02/27 10:17:45;;;;;;;9.27;3.03;;;6.10;99.90;;;;;;5055984;28;20056;-73
2022/02/27 10:20:22;;;;;;;11.25;3.70;;;6.10;99.90;;;;;;5054559;28;20040;-73
2022/02/27 10:22:50;;;;;;;5.65;2.90;;;6.20;99.90;;;;;;5062549;28;20118;-73
2022/02/27 10:25:27;;;;;;;10.13;3.20;;;6.40;99.90;;;;;;5063891;28;20094;-73
2022/02/27 10:27:59;;;;;;;8.02;2.85;;;6.50;99.90;;;;;;5065629;28;20044;-73
2022/02/27 10:30:24;;;;;;;6.93;2.80;;;6.40;99.90;;;;;;5064972;28;20072;-73
2022/02/27 10:33:02;;;;;;;8.45;3.40;;;6.40;99.90;;;;;;5065965;28;20129;-73
2022/02/27 10:35:47;;;;;;;8.20;3.28;;;6.50;99.90;;;;;;5067121;28;20077;-73
2022/02/27 10:38:45;;;;;;;9.60;3.17;;;6.60;99.90;;;;;;5060568;28;20048;-73
2022/02/27 10:41:16;;;;;;;8.80;3.20;;;6.70;99.90;;;;;;5064674;28;20033;-74
2022/02/27 10:43:44;;;;;;;7.57;3.25;;;6.70;99.90;;;;;;5062446;28;20065;-73
2022/02/27 10:46:11;;;;;;;10.90;3.40;;;6.80;99.90;;;;;;5060289;28;20044;-73
2022/02/27 10:48:37;;;;;;;8.07;2.88;;;7.00;99.90;;;;;;5064959;28;20478;-74
2022/02/27 10:51:05;;;;;;;12.00;3.30;;;6.90;99.90;;;;;;5065109;28;20046;-73
2022/02/27 10:53:49;;;;;;;10.23;3.53;;;6.80;99.90;;;;;;5063872;28;20042;-73
2022/02/27 10:56:16;;;;;;;9.70;3.92;;;6.90;99.90;;;;;;5064306;28;20087;-73
2022/02/27 10:58:49;;;;;;;11.10;3.55;;;6.80;99.90;;;;;;5098066;28;20056;-73
2022/02/27 11:01:19;;;;;;;7.93;3.22;;;6.80;99.90;;;;;;5065689;28;20141;-73
2022/02/27 11:03:48;;;;;;;7.88;3.15;;;6.90;99.90;;;;;;5068890;28;20101;-73
2022/02/27 11:06:14;;;;;;;7.97;3.00;;;7.10;99.90;;;;;;5068189;28;20044;-73
2022/02/27 11:08:42;;;;;;;11.90;3.72;;;7.20;99.90;;;;;;5066165;28;20098;-74
2022/02/27 11:11:08;;;;;;;10.25;3.80;;;7.20;99.90;;;;;;5068236;28;20040;-73
2022/02/27 11:13:34;;;;;;;6.57;2.72;;;7.30;99.90;;;;;;5070080;28;20625;-73
2022/02/27 11:16:01;;;;;;;10.07;3.53;;;7.30;99.90;;;;;;5067847;28;20044;-73
2022/02/27 11:18:27;;;;;;;12.13;3.47;;;7.40;99.90;;;;;;5072300;28;20060;-74
2022/02/27 11:20:57;;;;;;;6.85;2.63;;;7.50;99.90;;;;;;5071499;28;20043;-73
2022/02/27 11:23:23;;;;;;;14.15;4.03;;;7.40;97.60;;;;;;5070607;28;20076;-73
2022/02/27 11:25:51;;;;;;;7.00;3.47;;;7.30;97.80;;;;;;5072804;28;20098;-73
2022/02/27 11:28:20;;;;;;;6.60;3.10;;;7.30;98.20;;;;;;5071851;28;20051;-73
2022/02/27 11:30:49;;;;;;;8.05;2.67;;;7.40;98.60;;;;;;5066759;28;20036;-73
2022/02/27 11:33:21;;;;;;;6.25;2.65;;;7.60;98.00;;;;;;5069224;28;20471;-72
2022/02/27 11:35:52;;;;;;;10.93;3.33;;;7.80;97.50;;;;;;5068799;28;20044;-72
2022/02/27 11:38:18;;;;;;;6.28;2.88;;;8.10;98.30;;;;;;5065576;28;20639;-72
2022/02/27 11:40:56;;;;;;;8.07;3.45;;;8.00;95.20;;;;;;5070443;28;20045;-72
2022/02/27 11:43:43;;;;;;;7.65;2.88;;;7.80;94.20;;;;;;5068532;28;20075;-73
2022/02/27 11:46:16;;;;;;;6.38;2.42;;;7.70;92.60;;;;;;5063224;28;20132;-73
2022/02/27 11:48:51;;;;;;;6.43;2.47;;;7.70;93.40;;;;;;5066179;28;20036;-72
2022/02/27 11:51:49;;;;;;;5.97;2.60;;;7.90;94.50;;;;;;5070203;28;20044;-73
2022/02/27 11:54:19;;;;;;;4.50;2.40;;;8.10;94.50;;;;;;5068230;28;20040;-72
2022/02/27 11:57:01;;;;;;;8.65;2.75;;;8.00;93.00;;;;;;5069460;28;20048;-72
2022/02/27 11:59:54;;;;;;;8.00;2.33;;;8.20;94.20;;;;;;5067647;28;20052;-73
2022/02/27 12:02:39;;;;;;;6.93;2.28;;;8.40;92.30;;;;;;5062445;28;20044;-73
2022/02/27 12:05:11;;;;;;;6.15;2.55;;;8.20;93.00;;;;;;5069577;28;20057;-72
2022/02/27 12:08:03;;;;;;;7.20;3.08;;;8.30;92.10;;;;;;5068958;28;20033;-72
2022/02/27 12:10:39;;;;;;;7.80;3.17;;;8.10;91.40;;;;;;5069860;28;20048;-72
2022/02/27 12:13:31;;;;;;;7.35;2.72;;;8.00;92.70;;;;;;5070111;28;20040;-72
2022/02/27 12:16:04;;;;;;;3.70;1.85;;;8.00;90.90;;;;;;5093987;28;20091;-74
2022/02/27 12:18:30;;;;;;;7.85;2.45;;;7.80;90.30;;;;;;5078381;28;20040;-73
2022/02/27 12:21:00;;;;;;;6.45;2.20;;;7.80;91.50;;;;;;5070574;28;20044;-73
2022/02/27 12:23:33;;;;;;;6.22;2.30;;;7.90;91.70;;;;;;5071858;28;20398;-73
2022/02/27 12:26:02;;;;;;;9.13;3.22;;;8.00;91.30;;;;;;5070122;28;20106;-73
2022/02/27 12:28:48;;;;;;;6.28;2.53;;;8.00;91.60;;;;;;5070782;28;20072;-73
2022/02/27 12:31:21;;;;;;;5.68;1.88;;;8.00;90.80;;;;;;5068137;28;20053;-73
2022/02/27 12:33:48;;;;;;;4.95;2.22;;;8.00;89.90;;;;;;5065934;28;20048;-73
2022/02/27 12:36:37;;;;;;;8.48;2.50;;;7.90;89.90;;;;;;5070918;28;20040;-73
2022/02/27 12:39:06;;;;;;;5.53;2.10;;;7.90;89.60;;;;;;5096913;28;20048;-73
2022/02/27 12:41:34;;;;;;;6.00;2.50;;;8.00;91.20;;;;;;5067946;28;20133;-73
2022/02/27 12:44:01;;;;;;;6.97;2.03;;;8.20;90.60;;;;;;5067553;28;20051;-73
2022/02/27 12:46:27;;;;;;;5.65;2.28;;;8.10;90.40;;;;;;5067882;28;20045;-73
2022/02/27 12:51:38;;;;;;;8.90;2.10;;;8.50;90.70;;;;;;5067252;28;20040;-73